createdAt,value
2022-08-16T00:00:04.995Z,65.77
2022-08-16T00:00:59.525Z,65.87
2022-08-16T00:01:59.964Z,65.77
2022-08-16T00:02:59.175Z,66.00
2022-08-16T00:03:59.289Z,65.91
2022-08-16T00:04:59.921Z,65.91
2022-08-16T00:06:00.398Z,66.00
2022-08-16T00:07:00.306Z,66.00
2022-08-16T00:08:00.297Z,65.91
2022-08-16T00:08:58.426Z,65.91
2022-08-16T00:09:58.705Z,65.91
2022-08-16T00:11:00.228Z,66.00
2022-08-16T00:11:58.772Z,66.00
2022-08-16T00:12:58.880Z,66.10
2022-08-16T00:14:00.138Z,66.10
2022-08-16T00:14:58.381Z,66.33
2022-08-16T00:15:58.369Z,66.43
2022-08-16T00:17:16.070Z,66.43
2022-08-16T00:18:00.127Z,66.43
2022-08-16T00:19:00.451Z,66.43
2022-08-16T00:19:58.330Z,66.53
2022-08-16T00:20:58.319Z,66.53
2022-08-16T00:22:03.097Z,66.53
2022-08-16T00:23:00.082Z,66.63
2022-08-16T00:23:58.263Z,66.63
2022-08-16T00:24:59.059Z,66.63
2022-08-16T00:26:33.605Z,66.53
2022-08-16T00:27:00.974Z,66.63
2022-08-16T00:28:00.962Z,66.83
2022-08-16T00:28:58.215Z,66.93
2022-08-16T00:30:08.700Z,67.03
2022-08-16T00:31:03.494Z,67.23
2022-08-16T00:32:05.710Z,67.33
2022-08-16T00:32:59.183Z,67.23
2022-08-16T00:33:59.704Z,67.13
2022-08-16T00:35:00.744Z,67.13
2022-08-16T00:35:58.924Z,67.13
2022-08-16T00:36:58.137Z,67.13
2022-08-16T00:37:59.439Z,67.23
2022-08-16T00:38:58.896Z,67.23
2022-08-16T00:40:00.855Z,67.36
2022-08-16T00:40:58.126Z,67.57
2022-08-16T00:41:58.866Z,67.66
2022-08-16T00:42:58.856Z,67.63
2022-08-16T00:44:00.026Z,67.73
2022-08-16T00:45:00.757Z,67.76
2022-08-16T00:46:32.875Z,67.73
2022-08-16T00:47:02.397Z,67.63
2022-08-16T00:47:59.028Z,67.63
2022-08-16T00:48:59.637Z,67.43
2022-08-16T00:49:57.993Z,67.23
2022-08-16T00:50:58.219Z,67.10
2022-08-16T00:51:57.963Z,67.10
2022-08-16T00:52:58.221Z,67.10
2022-08-16T00:53:58.743Z,67.13
2022-08-16T00:55:00.570Z,67.10
2022-08-16T00:55:57.955Z,67.23
2022-08-16T00:56:59.941Z,67.53
2022-08-16T00:57:59.794Z,67.53
2022-08-16T00:58:57.881Z,67.53
2022-08-16T00:59:59.453Z,67.53
2022-08-16T01:00:58.172Z,67.53
2022-08-16T01:01:59.642Z,67.53
2022-08-16T01:02:57.850Z,67.53
2022-08-16T01:03:57.832Z,67.63
2022-08-16T01:05:10.759Z,67.83
2022-08-16T01:06:40.056Z,67.93
2022-08-16T01:07:02.046Z,67.93
2022-08-16T01:07:59.628Z,67.93
2022-08-16T01:09:00.144Z,67.93
2022-08-16T01:09:57.754Z,67.83
2022-08-16T01:11:00.058Z,67.93
2022-08-16T01:11:57.747Z,67.83
2022-08-16T01:12:57.725Z,67.83
2022-08-16T01:13:57.758Z,67.83
2022-08-16T01:15:00.368Z,67.83
2022-08-16T01:16:00.378Z,67.70
2022-08-16T01:16:57.696Z,67.70
2022-08-16T01:17:57.697Z,67.50
2022-08-16T01:18:57.657Z,67.60
2022-08-16T01:20:00.727Z,67.60
2022-08-16T01:20:59.348Z,67.60
2022-08-16T01:22:48.619Z,67.70
2022-08-16T01:23:00.310Z,67.83
2022-08-16T01:24:01.358Z,68.03
2022-08-16T01:24:58.398Z,68.13
2022-08-16T01:26:00.088Z,68.13
2022-08-16T01:27:03.662Z,68.13
2022-08-16T01:27:57.580Z,68.33
2022-08-16T01:28:57.561Z,68.46
2022-08-16T01:29:59.564Z,68.33
2022-08-16T01:30:57.539Z,68.23
2022-08-16T01:31:57.560Z,68.23
2022-08-16T01:33:02.261Z,68.23
2022-08-16T01:33:59.312Z,68.46
2022-08-16T01:34:57.502Z,68.46
2022-08-16T01:35:57.484Z,68.46
2022-08-16T01:36:58.431Z,68.56
2022-08-16T01:38:00.182Z,68.66
2022-08-16T01:38:57.601Z,68.86
2022-08-16T01:39:59.141Z,68.76
2022-08-16T01:40:57.424Z,68.66
2022-08-16T01:41:57.461Z,68.66
2022-08-16T01:43:02.367Z,68.66
2022-08-16T01:44:00.909Z,68.66
2022-08-16T01:44:57.604Z,68.76
2022-08-16T01:46:00.025Z,68.86
2022-08-16T01:46:58.374Z,68.76
2022-08-16T01:47:57.355Z,68.86
2022-08-16T01:48:59.989Z,68.96
2022-08-16T01:50:42.898Z,69.29
2022-08-16T01:51:09.100Z,69.59
2022-08-16T01:51:58.327Z,69.59
2022-08-16T01:52:57.286Z,69.59
2022-08-16T01:53:59.027Z,69.49
2022-08-16T01:54:58.078Z,69.49
2022-08-16T01:55:58.961Z,69.39
2022-08-16T01:56:59.938Z,69.39
2022-08-16T01:57:59.588Z,69.59
2022-08-16T01:58:58.029Z,69.69
2022-08-16T01:59:57.244Z,69.89
2022-08-16T02:00:57.208Z,69.79
2022-08-16T02:02:00.325Z,69.79
2022-08-16T02:02:57.190Z,69.89
2022-08-16T02:03:58.739Z,69.79
2022-08-16T02:04:59.970Z,69.79
2022-08-16T02:05:58.121Z,69.79
2022-08-16T02:06:57.937Z,69.79
2022-08-16T02:07:57.151Z,70.03
2022-08-16T02:08:57.114Z,70.03
2022-08-16T02:09:59.503Z,70.12
2022-08-16T02:10:57.125Z,70.12
2022-08-16T02:11:57.092Z,70.23
2022-08-16T02:13:00.732Z,70.42
2022-08-16T02:13:57.085Z,70.42
2022-08-16T02:14:57.053Z,70.42
2022-08-16T02:15:58.703Z,70.42
2022-08-16T02:16:57.043Z,70.42
2022-08-16T02:18:01.293Z,70.53
2022-08-16T02:18:57.004Z,70.62
2022-08-16T02:19:58.865Z,70.72
2022-08-16T02:20:56.994Z,70.86
2022-08-16T02:22:09.053Z,70.86
2022-08-16T02:23:05.752Z,70.96
2022-08-16T02:23:56.975Z,71.06
2022-08-16T02:24:58.497Z,71.16
2022-08-16T02:25:56.926Z,71.36
2022-08-16T02:26:56.955Z,71.36
2022-08-16T02:27:56.927Z,71.36
2022-08-16T02:28:56.926Z,71.36
2022-08-16T02:30:05.585Z,71.26
2022-08-16T02:30:57.877Z,71.26
2022-08-16T02:32:03.765Z,71.46
2022-08-16T02:33:00.185Z,71.46
2022-08-16T02:33:57.901Z,71.56
2022-08-16T02:34:57.148Z,71.66
2022-08-16T02:35:59.956Z,71.66
2022-08-16T02:36:56.829Z,71.76
2022-08-16T02:37:56.821Z,71.79
2022-08-16T02:39:06.061Z,71.86
2022-08-16T02:40:00.844Z,71.89
2022-08-16T02:40:59.124Z,71.89
2022-08-16T02:41:57.569Z,71.99
2022-08-16T02:43:06.181Z,71.99
2022-08-16T02:43:56.741Z,72.09
2022-08-16T02:44:56.733Z,72.19
2022-08-16T02:45:56.750Z,72.29
2022-08-16T02:46:59.372Z,72.39
2022-08-16T02:48:00.965Z,72.59
2022-08-16T02:48:57.677Z,72.69
2022-08-16T02:50:01.421Z,72.79
2022-08-16T02:51:06.459Z,72.89
2022-08-16T02:51:57.660Z,73.09
2022-08-16T02:52:57.223Z,73.09
2022-08-16T02:53:59.030Z,73.22
2022-08-16T02:54:57.423Z,73.43
2022-08-16T02:55:56.595Z,73.43
2022-08-16T02:56:57.404Z,73.63
2022-08-16T02:57:56.607Z,73.63
2022-08-16T02:58:56.594Z,73.72
2022-08-16T02:59:56.566Z,73.72
2022-08-16T03:00:59.300Z,73.72
2022-08-16T03:01:59.227Z,73.72
2022-08-16T03:02:56.539Z,73.83
2022-08-16T03:04:39.792Z,73.93
2022-08-16T03:05:00.305Z,73.93
2022-08-16T03:05:56.505Z,73.93
2022-08-16T03:06:57.351Z,73.83
2022-08-16T03:07:56.499Z,73.93
2022-08-16T03:09:00.088Z,74.03
2022-08-16T03:10:00.610Z,74.16
2022-08-16T03:10:59.220Z,74.13
2022-08-16T03:11:56.459Z,74.16
2022-08-16T03:12:56.841Z,74.16
2022-08-16T03:13:56.787Z,74.16
2022-08-16T03:14:56.423Z,74.06
2022-08-16T03:15:56.400Z,74.06
2022-08-16T03:16:58.700Z,74.16
2022-08-16T03:17:56.409Z,74.16
2022-08-16T03:18:56.370Z,74.16
2022-08-16T03:20:00.205Z,74.16
2022-08-16T03:20:57.331Z,74.16
2022-08-16T03:21:56.352Z,74.26
2022-08-16T03:22:56.554Z,74.46
2022-08-16T03:23:56.296Z,74.70
2022-08-16T03:24:57.553Z,74.66
2022-08-16T03:25:56.302Z,74.80
2022-08-16T03:26:58.068Z,74.90
2022-08-16T03:27:56.283Z,75.10
2022-08-16T03:28:56.254Z,75.10
2022-08-16T03:29:59.993Z,75.10
2022-08-16T03:30:56.225Z,75.00
2022-08-16T03:31:56.226Z,75.00
2022-08-16T03:32:56.234Z,75.00
2022-08-16T03:33:56.195Z,74.80
2022-08-16T03:34:56.176Z,74.70
2022-08-16T03:35:57.058Z,74.70
2022-08-16T03:36:56.975Z,74.73
2022-08-16T03:38:02.519Z,74.93
2022-08-16T03:38:57.953Z,75.23
2022-08-16T03:39:56.903Z,75.34
2022-08-16T03:40:57.126Z,75.47
2022-08-16T03:42:00.049Z,75.57
2022-08-16T03:43:18.647Z,75.57
2022-08-16T03:43:57.040Z,75.34
2022-08-16T03:45:03.841Z,75.23
2022-08-16T03:45:57.088Z,75.23
2022-08-16T03:46:58.232Z,75.13
2022-08-16T03:47:58.574Z,75.13
2022-08-16T03:48:57.738Z,75.13
2022-08-16T03:49:57.912Z,75.13
2022-08-16T03:50:59.906Z,75.23
2022-08-16T03:51:57.750Z,75.23
2022-08-16T03:53:01.350Z,75.23
2022-08-16T03:54:01.026Z,75.34
2022-08-16T03:54:58.115Z,75.47
2022-08-16T03:55:57.640Z,75.57
2022-08-16T03:56:58.612Z,75.57
2022-08-16T03:57:55.909Z,75.67
2022-08-16T03:58:55.882Z,75.57
2022-08-16T03:59:57.552Z,75.57
2022-08-16T04:00:56.777Z,75.47
2022-08-16T04:01:55.852Z,75.47
2022-08-16T04:02:57.472Z,75.57
2022-08-16T04:03:55.825Z,75.37
2022-08-16T04:04:56.053Z,75.37
2022-08-16T04:05:55.784Z,75.27
2022-08-16T04:06:55.792Z,75.27
2022-08-16T04:07:55.786Z,75.17
2022-08-16T04:08:55.783Z,75.27
2022-08-16T04:09:56.544Z,75.17
2022-08-16T04:10:58.024Z,75.27
2022-08-16T04:11:55.745Z,75.37
2022-08-16T04:12:59.445Z,75.37
2022-08-16T04:14:00.812Z,75.37
2022-08-16T04:14:56.694Z,75.27
2022-08-16T04:15:55.676Z,75.47
2022-08-16T04:16:55.677Z,75.47
2022-08-16T04:17:55.689Z,75.47
2022-08-16T04:19:01.960Z,75.47
2022-08-16T04:19:58.088Z,75.47
2022-08-16T04:20:56.451Z,75.37
2022-08-16T04:21:56.819Z,75.27
2022-08-16T04:22:55.627Z,75.17
2022-08-16T04:23:55.599Z,75.07
2022-08-16T04:24:55.635Z,74.97
2022-08-16T04:25:55.587Z,75.07
2022-08-16T04:26:58.298Z,75.17
2022-08-16T04:27:56.036Z,75.17
2022-08-16T04:29:16.994Z,75.17
2022-08-16T04:30:02.784Z,75.07
2022-08-16T04:30:56.541Z,75.07
2022-08-16T04:31:58.064Z,74.97
2022-08-16T04:32:56.383Z,75.07
2022-08-16T04:33:55.503Z,75.17
2022-08-16T04:34:55.470Z,75.27
2022-08-16T04:35:55.494Z,75.37
2022-08-16T04:36:56.742Z,75.37
2022-08-16T04:37:58.102Z,75.47
2022-08-16T04:38:55.461Z,75.57
2022-08-16T04:39:57.344Z,75.67
2022-08-16T04:40:55.422Z,75.77
2022-08-16T04:41:56.569Z,75.77
2022-08-16T04:42:55.426Z,75.67
2022-08-16T04:43:56.193Z,75.77
2022-08-16T04:44:55.905Z,75.77
2022-08-16T04:46:00.148Z,75.77
2022-08-16T04:47:02.366Z,75.77
2022-08-16T04:47:56.041Z,75.77
2022-08-16T04:48:55.372Z,75.97
2022-08-16T04:49:55.319Z,76.17
2022-08-16T04:50:55.318Z,76.17
2022-08-16T04:51:55.472Z,76.37
2022-08-16T04:52:55.742Z,76.28
2022-08-16T04:53:56.083Z,76.37
2022-08-16T04:54:55.283Z,76.47
2022-08-16T04:55:55.247Z,76.37
2022-08-16T04:56:56.047Z,76.37
2022-08-16T04:57:55.247Z,76.37
2022-08-16T04:58:57.992Z,76.37
2022-08-16T04:59:55.218Z,76.28
2022-08-16T05:00:55.218Z,76.07
2022-08-16T05:01:57.758Z,76.17
2022-08-16T05:02:58.819Z,76.28
2022-08-16T05:04:00.434Z,76.28
2022-08-16T05:04:56.148Z,76.17
2022-08-16T05:05:58.903Z,76.37
2022-08-16T05:06:55.139Z,76.57
2022-08-16T05:08:00.215Z,76.57
2022-08-16T05:08:56.628Z,76.67
2022-08-16T05:09:55.100Z,76.57
2022-08-16T05:10:59.862Z,76.57
2022-08-16T05:11:57.355Z,76.37
2022-08-16T05:12:55.081Z,76.28
2022-08-16T05:13:55.065Z,76.37
2022-08-16T05:15:02.431Z,76.37
2022-08-16T05:15:56.057Z,76.37
2022-08-16T05:16:55.039Z,76.17
2022-08-16T05:17:58.927Z,76.17
2022-08-16T05:18:58.641Z,76.17
2022-08-16T05:19:58.382Z,76.17
2022-08-16T05:21:09.382Z,76.07
2022-08-16T05:23:07.910Z,75.74
2022-08-16T05:24:09.401Z,75.54
2022-08-16T05:25:41.299Z,75.43
2022-08-16T05:41:06.233Z,75.00
2022-08-16T05:42:06.273Z,74.93
2022-08-16T05:43:32.257Z,75.00
2022-08-16T05:44:23.102Z,74.80
2022-08-16T05:56:52.217Z,73.66
2022-08-16T05:59:59.610Z,73.53
2022-08-16T06:00:55.751Z,73.03
2022-08-16T06:01:58.926Z,73.33
2022-08-16T06:03:04.042Z,73.36
2022-08-16T06:03:53.660Z,73.26
2022-08-16T06:04:54.411Z,73.56
2022-08-16T06:05:53.610Z,73.46
2022-08-16T06:06:55.767Z,73.36
2022-08-16T06:07:59.141Z,73.46
2022-08-16T06:08:54.579Z,73.56
2022-08-16T06:09:53.628Z,73.43
2022-08-16T06:11:02.641Z,73.43
2022-08-16T06:11:54.560Z,73.33
2022-08-16T06:12:56.318Z,73.13
2022-08-16T06:13:55.439Z,73.13
2022-08-16T06:14:54.601Z,73.03
2022-08-16T06:15:53.514Z,72.92
2022-08-16T06:16:53.491Z,72.69
2022-08-16T06:17:53.504Z,72.79
2022-08-16T06:18:53.474Z,72.59
2022-08-16T06:19:53.480Z,72.39
2022-08-16T06:20:56.143Z,72.39
2022-08-16T06:21:55.245Z,72.59
2022-08-16T06:23:02.868Z,72.49
2022-08-16T06:23:57.123Z,72.59
2022-08-16T06:24:56.159Z,72.39
2022-08-16T06:25:53.583Z,72.49
2022-08-16T06:27:02.468Z,72.39
2022-08-16T06:28:01.857Z,72.16
2022-08-16T06:28:54.399Z,72.06
2022-08-16T06:29:53.508Z,71.96
2022-08-16T06:30:53.368Z,71.76
2022-08-16T06:31:54.996Z,71.86
2022-08-16T06:32:55.807Z,71.86
2022-08-16T06:33:58.629Z,71.66
2022-08-16T06:34:53.341Z,71.66
2022-08-16T06:35:55.049Z,71.86
2022-08-16T06:36:59.200Z,71.86
2022-08-16T06:37:54.318Z,71.86
2022-08-16T06:38:56.648Z,71.76
2022-08-16T06:39:53.290Z,71.76
2022-08-16T06:40:53.239Z,72.02
2022-08-16T06:41:53.231Z,71.22
2022-08-16T06:42:57.313Z,71.12
2022-08-16T06:43:53.331Z,71.33
2022-08-16T06:44:53.359Z,71.52
2022-08-16T06:45:53.372Z,71.72
2022-08-16T06:46:53.313Z,71.52
2022-08-16T06:47:57.013Z,71.33
2022-08-16T06:48:53.292Z,71.09
2022-08-16T06:49:54.908Z,70.79
2022-08-16T06:50:53.162Z,70.59
2022-08-16T06:51:53.217Z,70.39
2022-08-16T06:52:59.955Z,70.36
2022-08-16T06:53:54.127Z,70.39
2022-08-16T06:54:53.102Z,70.59
2022-08-16T06:55:53.797Z,70.69
2022-08-16T06:56:54.116Z,70.89
2022-08-16T06:57:57.693Z,70.69
2022-08-16T06:58:53.057Z,70.56
2022-08-16T06:59:58.473Z,70.16
2022-08-16T07:00:56.720Z,70.46
2022-08-16T07:01:55.279Z,70.56
2022-08-16T07:02:53.238Z,69.86
2022-08-16T07:03:55.173Z,69.86
2022-08-16T07:04:52.976Z,70.36
2022-08-16T07:05:52.978Z,69.73
2022-08-16T07:06:52.976Z,69.53
2022-08-16T07:07:54.103Z,69.43
2022-08-16T07:08:52.967Z,69.13
2022-08-16T07:09:52.949Z,69.02
2022-08-16T07:10:52.909Z,69.02
2022-08-16T07:11:52.937Z,69.02
2022-08-16T07:13:04.132Z,69.23
2022-08-16T07:14:03.894Z,69.09
2022-08-16T07:14:57.332Z,68.90
2022-08-16T07:15:53.883Z,68.30
2022-08-16T07:16:54.499Z,68.30
2022-08-16T07:17:55.531Z,68.60
2022-08-16T07:18:59.390Z,68.70
2022-08-16T07:20:03.107Z,68.79
2022-08-16T07:20:54.033Z,68.70
2022-08-16T07:21:59.507Z,68.26
2022-08-16T07:22:59.053Z,68.37
2022-08-16T07:23:56.832Z,68.07
2022-08-16T07:24:56.452Z,67.96
2022-08-16T07:25:52.989Z,68.26
2022-08-16T07:26:52.751Z,68.49
2022-08-16T07:27:52.779Z,68.26
2022-08-16T07:28:52.790Z,68.16
2022-08-16T07:29:55.669Z,68.26
2022-08-16T07:30:54.413Z,68.26
2022-08-16T07:31:54.415Z,68.07
2022-08-16T07:32:59.725Z,68.07
2022-08-16T07:33:56.993Z,68.07
2022-08-16T07:34:54.614Z,67.63
2022-08-16T07:35:54.383Z,67.33
2022-08-16T07:36:58.236Z,67.00
2022-08-16T07:37:55.348Z,66.80
2022-08-16T07:38:53.435Z,66.61
2022-08-16T07:39:52.670Z,66.50
2022-08-16T07:41:01.341Z,66.61
2022-08-16T07:41:56.268Z,66.71
2022-08-16T07:42:52.590Z,66.61
2022-08-16T07:43:52.600Z,66.20
2022-08-16T07:44:52.579Z,66.50
2022-08-16T07:45:55.186Z,66.38
2022-08-16T07:47:07.768Z,66.38
2022-08-16T07:47:52.549Z,66.57
2022-08-16T07:48:52.518Z,66.27
2022-08-16T07:49:58.306Z,66.08
2022-08-16T07:50:58.884Z,65.88
2022-08-16T07:52:02.964Z,66.17
2022-08-16T07:52:54.429Z,66.17
2022-08-16T07:54:02.495Z,65.98
2022-08-16T07:54:55.360Z,65.68
2022-08-16T07:55:56.300Z,65.75
2022-08-16T07:56:53.999Z,65.75
2022-08-16T07:58:00.754Z,65.45
2022-08-16T07:58:55.522Z,65.45
2022-08-16T07:59:52.411Z,65.35
2022-08-16T08:00:52.446Z,65.25
2022-08-16T08:01:52.961Z,64.95
2022-08-16T08:02:52.528Z,64.82
2022-08-16T08:03:52.373Z,64.92
2022-08-16T08:04:55.070Z,65.02
2022-08-16T08:05:52.345Z,64.92
2022-08-16T08:06:53.120Z,64.92
2022-08-16T08:07:52.324Z,64.52
2022-08-16T08:08:57.239Z,64.62
2022-08-16T08:09:53.300Z,64.39
2022-08-16T08:10:52.308Z,63.96
2022-08-16T08:12:00.765Z,63.46
2022-08-16T08:12:59.390Z,63.67
2022-08-16T08:13:52.258Z,63.57
2022-08-16T08:14:53.614Z,63.04
2022-08-16T08:15:52.937Z,62.54
2022-08-16T08:16:54.858Z,62.34
2022-08-16T08:17:52.217Z,62.64
2022-08-16T08:18:56.237Z,62.54
2022-08-16T08:19:53.616Z,62.31
2022-08-16T08:20:59.153Z,62.45
2022-08-16T08:22:00.848Z,62.21
2022-08-16T08:22:53.148Z,62.21
2022-08-16T08:23:53.148Z,62.02
2022-08-16T08:24:53.330Z,62.02
2022-08-16T08:25:55.290Z,62.12
2022-08-16T08:26:52.111Z,61.72
2022-08-16T08:27:52.139Z,62.02
2022-08-16T08:28:53.090Z,61.82
2022-08-16T08:30:49.401Z,61.82
2022-08-16T08:31:00.851Z,61.91
2022-08-16T08:31:53.182Z,61.39
2022-08-16T08:33:00.480Z,61.22
2022-08-16T08:33:53.047Z,61.32
2022-08-16T08:35:06.682Z,60.99
2022-08-16T08:35:52.013Z,60.80
2022-08-16T08:36:54.177Z,60.70
2022-08-16T08:37:55.815Z,59.97
2022-08-16T08:38:51.993Z,60.17
2022-08-16T08:39:54.731Z,59.84
2022-08-16T08:40:51.964Z,59.75
2022-08-16T08:41:55.089Z,59.65
2022-08-16T08:42:51.926Z,59.25
2022-08-16T08:43:52.945Z,59.32
2022-08-16T08:44:51.913Z,59.22
2022-08-16T08:45:54.636Z,59.12
2022-08-16T08:46:59.635Z,59.03
2022-08-16T08:47:54.204Z,59.12
2022-08-16T08:48:59.772Z,59.12
2022-08-16T08:49:55.590Z,58.73
2022-08-16T08:50:54.525Z,58.70
2022-08-16T08:51:51.858Z,58.30
2022-08-16T08:52:54.551Z,57.54
2022-08-16T08:53:57.954Z,57.24
2022-08-16T08:54:52.811Z,57.44
2022-08-16T08:55:58.883Z,57.31
2022-08-16T08:56:56.022Z,58.11
2022-08-16T08:57:51.789Z,58.11
2022-08-16T08:58:54.023Z,57.71
2022-08-16T08:59:55.480Z,57.71
2022-08-16T09:00:51.974Z,57.71
2022-08-16T09:01:57.716Z,56.62
2022-08-16T09:02:54.516Z,56.82
2022-08-16T09:03:51.734Z,57.61
2022-08-16T09:04:52.514Z,57.58
2022-08-16T09:05:54.361Z,57.48
2022-08-16T09:06:51.702Z,56.49
2022-08-16T09:08:00.237Z,56.30
2022-08-16T09:08:54.384Z,56.32
2022-08-16T09:10:06.375Z,56.82
2022-08-16T09:11:01.928Z,56.89
2022-08-16T09:12:04.183Z,56.59
2022-08-16T09:12:55.993Z,56.79
2022-08-16T09:13:52.634Z,56.76
2022-08-16T09:14:51.663Z,56.67
2022-08-16T09:15:51.613Z,56.24
2022-08-16T09:17:03.407Z,55.26
2022-08-16T09:17:53.615Z,54.96
2022-08-16T09:18:56.860Z,55.05
2022-08-16T09:19:55.606Z,54.98
2022-08-16T09:20:58.665Z,54.79
2022-08-16T09:21:56.158Z,54.96
2022-08-16T09:22:52.779Z,55.05
2022-08-16T09:23:54.159Z,55.45
2022-08-16T09:24:58.136Z,55.97
2022-08-16T09:25:53.279Z,55.77
2022-08-16T09:26:52.596Z,55.77
2022-08-16T09:27:56.759Z,55.58
2022-08-16T09:29:14.698Z,55.05
2022-08-16T09:30:00.353Z,54.66
2022-08-16T09:30:59.833Z,54.14
2022-08-16T09:31:55.835Z,53.05
2022-08-16T09:32:54.093Z,53.15
2022-08-16T09:35:06.707Z,53.69
2022-08-16T09:36:11.903Z,53.79
2022-08-16T09:37:18.064Z,53.89
2022-08-16T09:38:08.684Z,53.79
2022-08-16T09:39:02.989Z,53.50
2022-08-16T09:40:32.929Z,53.50
2022-08-16T09:41:04.079Z,53.59
2022-08-16T09:42:02.965Z,53.79
2022-08-16T09:43:06.292Z,53.72
2022-08-16T09:45:07.926Z,53.52
2022-08-16T09:45:12.740Z,53.12
2022-08-16T09:46:48.902Z,53.10
2022-08-16T09:47:03.867Z,52.21
2022-08-16T09:48:03.864Z,51.99
2022-08-16T09:49:03.816Z,51.79
2022-08-16T09:50:02.858Z,51.79
2022-08-16T09:51:03.851Z,52.19
2022-08-16T09:52:02.825Z,52.39
2022-08-16T09:53:02.787Z,52.19
2022-08-16T09:54:02.815Z,52.19
2022-08-16T09:55:02.787Z,51.77
2022-08-16T09:56:02.788Z,51.97
2022-08-16T09:57:03.759Z,51.37
2022-08-16T09:58:02.770Z,50.78
2022-08-16T09:59:05.195Z,50.76
2022-08-16T10:00:03.740Z,50.88
2022-08-16T10:01:03.719Z,50.76
2022-08-16T10:02:26.302Z,50.95
2022-08-16T10:03:03.743Z,51.28
2022-08-16T10:04:05.240Z,51.15
2022-08-16T10:05:03.748Z,51.57
2022-08-16T10:06:02.693Z,50.98
2022-08-16T10:07:03.125Z,50.98
2022-08-16T10:08:25.387Z,51.18
2022-08-16T10:09:05.658Z,49.20
2022-08-16T10:10:02.619Z,49.52
2022-08-16T10:11:02.654Z,49.79
2022-08-16T10:12:11.629Z,50.29
2022-08-16T10:13:03.597Z,50.19
2022-08-16T10:14:02.574Z,49.99
2022-08-16T10:15:02.613Z,49.99
2022-08-16T10:16:02.617Z,49.97
2022-08-16T10:17:02.691Z,50.26
2022-08-16T10:18:02.708Z,50.14
2022-08-16T10:19:06.968Z,49.87
2022-08-16T10:20:02.544Z,49.65
2022-08-16T10:21:02.509Z,48.76
2022-08-16T10:22:04.673Z,48.64
2022-08-16T10:23:07.140Z,48.37
2022-08-16T10:24:03.482Z,48.14
2022-08-16T10:25:02.553Z,47.73
2022-08-16T10:27:00.649Z,47.83
2022-08-16T10:27:25.740Z,48.14
2022-08-16T10:28:28.049Z,48.44
2022-08-16T10:29:04.760Z,48.25
2022-08-16T10:30:07.191Z,48.35
2022-08-16T10:31:04.416Z,48.03
2022-08-16T10:32:03.466Z,47.24
2022-08-16T10:33:03.217Z,46.92
2022-08-16T10:34:05.812Z,46.92
2022-08-16T10:35:07.343Z,46.92
2022-08-16T10:36:04.155Z,47.02
2022-08-16T10:37:03.152Z,46.65
2022-08-16T10:38:02.325Z,47.24
2022-08-16T10:39:02.334Z,46.72
2022-08-16T10:40:02.381Z,46.33
2022-08-16T10:41:03.045Z,45.92
2022-08-16T10:42:06.961Z,45.79
2022-08-16T10:43:08.213Z,45.92
2022-08-16T10:44:09.554Z,45.50
2022-08-16T10:45:03.106Z,45.60
2022-08-16T10:46:02.277Z,45.62
2022-08-16T10:47:05.911Z,45.42
2022-08-16T10:48:03.635Z,45.45
2022-08-16T10:49:05.274Z,44.95
2022-08-16T10:50:02.260Z,45.05
2022-08-16T10:51:02.197Z,45.32
2022-08-16T10:52:19.123Z,45.20
2022-08-16T10:53:05.889Z,44.57
2022-08-16T10:54:04.990Z,44.37
2022-08-16T10:56:03.194Z,43.49
2022-08-16T10:57:04.252Z,44.52
2022-08-16T10:58:09.222Z,44.71
2022-08-16T11:00:05.804Z,44.22
2022-08-16T11:03:02.119Z,43.47
2022-08-16T11:05:04.854Z,43.08
2022-08-16T11:05:06.331Z,44.01
2022-08-16T11:06:03.140Z,44.64
2022-08-16T11:07:07.873Z,44.73
2022-08-16T11:08:05.323Z,44.22
2022-08-16T11:11:05.068Z,42.98
2022-08-16T11:11:06.851Z,42.37
2022-08-16T11:12:13.493Z,41.68
2022-08-16T11:14:11.476Z,40.00
2022-08-16T11:15:13.345Z,40.88
2022-08-16T11:17:10.953Z,41.43
2022-08-16T11:19:03.130Z,41.55
2022-08-16T11:19:12.390Z,42.14
2022-08-16T11:21:03.686Z,41.29
2022-08-16T11:22:38.968Z,41.00
2022-08-16T11:23:04.339Z,40.56
2022-08-16T11:24:03.429Z,40.68
2022-08-16T11:26:16.519Z,40.78
2022-08-16T11:27:19.694Z,40.66
2022-08-16T11:28:05.471Z,39.59
2022-08-16T11:29:17.026Z,39.56
2022-08-16T11:30:02.858Z,39.17
2022-08-16T11:31:02.803Z,39.51
2022-08-16T11:32:04.501Z,39.98
2022-08-16T11:33:01.771Z,40.16
2022-08-16T11:34:01.756Z,40.45
2022-08-16T11:35:10.200Z,40.06
2022-08-16T11:37:02.731Z,40.35
2022-08-16T11:38:24.055Z,41.17
2022-08-16T11:39:02.947Z,42.53
2022-08-16T11:40:01.889Z,43.14
2022-08-16T11:41:01.774Z,43.04
2022-08-16T11:42:02.591Z,42.04
2022-08-16T11:43:04.537Z,42.33
2022-08-16T11:44:01.650Z,41.24
2022-08-16T11:45:01.667Z,40.64
2022-08-16T11:46:43.214Z,39.95
2022-08-16T12:26:22.707Z,35.51
2022-08-16T12:26:59.919Z,36.44
2022-08-16T12:37:41.442Z,40.23
2022-08-16T12:39:03.743Z,40.13
2022-08-16T12:43:14.290Z,40.41
2022-08-16T12:46:59.016Z,38.93
2022-08-16T12:55:17.232Z,35.53
2022-08-16T12:58:48.912Z,33.28
2022-08-16T12:59:35.349Z,34.09
2022-08-16T13:00:26.980Z,33.38
2022-08-16T13:02:33.412Z,33.70
2022-08-16T13:04:08.373Z,34.24
2022-08-16T13:04:25.799Z,34.22
2022-08-16T13:05:27.767Z,33.82
2022-08-16T13:08:00.477Z,33.51
2022-08-16T13:17:23.869Z,30.71
2022-08-16T13:41:54.080Z,30.42
2022-08-16T13:46:08.626Z,29.85
2022-08-16T13:47:21.863Z,29.15
2022-08-16T13:55:23.321Z,28.62
2022-08-16T14:00:23.104Z,28.51
2022-08-16T14:01:02.027Z,27.91
2022-08-16T14:06:01.493Z,29.70
2022-08-16T14:08:11.640Z,28.00
2022-08-16T14:08:50.420Z,29.23
2022-08-16T14:16:24.163Z,27.61
2022-08-16T14:16:59.016Z,27.93
2022-08-16T14:29:01.277Z,29.13
2022-08-16T14:30:01.330Z,28.96
2022-08-16T14:34:58.370Z,27.73
2022-08-16T14:46:43.965Z,28.69
2022-08-16T14:52:38.000Z,32.35
2022-08-16T14:56:06.877Z,31.77
2022-08-16T15:02:48.875Z,32.57
2022-08-16T15:07:22.920Z,32.75
2022-08-16T15:08:43.923Z,32.92
2022-08-16T15:09:22.574Z,32.53
2022-08-16T15:13:18.793Z,32.40
2022-08-16T15:13:46.842Z,32.02
2022-08-16T15:27:14.774Z,30.62
2022-08-16T15:37:42.852Z,31.51
2022-08-16T15:38:57.529Z,31.93
2022-08-16T17:10:46.258Z,29.37
2022-08-16T17:32:44.316Z,33.43
2022-08-16T17:36:54.457Z,33.94
2022-08-16T18:03:07.529Z,36.29
2022-08-16T18:18:59.361Z,37.11
2022-08-16T19:00:56.280Z,42.61
2022-08-16T19:31:48.894Z,45.65
2022-08-16T19:41:07.495Z,46.76
2022-08-16T19:43:18.367Z,46.76
2022-08-16T19:56:49.033Z,48.39
2022-08-16T20:09:46.300Z,49.27
2022-08-16T20:23:39.380Z,50.48
2022-08-16T20:39:04.860Z,50.98
2022-08-16T20:43:37.200Z,51.40
2022-08-16T21:01:59.414Z,53.50
2022-08-16T21:28:40.070Z,52.91
2022-08-16T21:47:27.629Z,55.98
2022-08-16T22:00:13.844Z,55.96
2022-08-16T22:38:56.639Z,55.32
2022-08-16T22:40:46.468Z,55.64
2022-08-16T22:41:40.068Z,55.44
2022-08-16T22:45:23.749Z,56.04
2022-08-16T22:50:46.682Z,56.36
2022-08-16T22:57:00.655Z,56.56
2022-08-16T23:08:38.149Z,57.38
2022-08-16T23:24:57.002Z,57.06
2022-08-16T23:25:29.823Z,57.15
2022-08-16T23:26:44.976Z,57.25
2022-08-16T23:42:14.445Z,58.04
2022-08-16T23:45:43.548Z,57.85
2022-08-16T23:57:56.390Z,59.17
